sensor_id;sensor_type;location;lat;lon;timestamp;temperature;humidity
43665;DHT22;29263;48.172;11.484;2022-09-09T00:07:51;14.90;99.90
43665;DHT22;29263;48.172;11.484;2022-09-09T00:10:39;14.80;99.90
43665;DHT22;29263;48.172;11.484;2022-09-09T00:13:33;14.80;99.90
43665;DHT22;29263;48.172;11.484;2022-09-09T00:24:55;14.80;99.90
43665;DHT22;29263;48.172;11.484;2022-09-09T00:27:46;14.80;99.90
43665;DHT22;29263;48.172;11.484;2022-09-09T00:30:48;14.80;99.90
43665;DHT22;29263;48.172;11.484;2022-09-09T00:33:18;14.80;99.90
43665;DHT22;29263;48.172;11.484;2022-09-09T00:35:56;14.80;99.90
43665;DHT22;29263;48.172;11.484;2022-09-09T00:38:32;14.80;99.90
43665;DHT22;29263;48.172;11.484;2022-09-09T00:56:16;14.70;99.90
43665;DHT22;29263;48.172;11.484;2022-09-09T00:59:05;14.70;99.90
43665;DHT22;29263;48.172;11.484;2022-09-09T01:01:33;14.60;99.90
43665;DHT22;29263;48.172;11.484;2022-09-09T01:04:01;14.50;99.90
43665;DHT22;29263;48.172;11.484;2022-09-09T01:06:33;14.50;99.90
43665;DHT22;29263;48.172;11.484;2022-09-09T01:09:21;14.40;99.90
43665;DHT22;29263;48.172;11.484;2022-09-09T01:12:03;14.40;99.90
43665;DHT22;29263;48.172;11.484;2022-09-09T01:17:30;14.20;99.90
43665;DHT22;29263;48.172;11.484;2022-09-09T01:20:13;14.20;99.90
43665;DHT22;29263;48.172;11.484;2022-09-09T01:25:22;14.20;99.90
43665;DHT22;29263;48.172;11.484;2022-09-09T01:27:52;14.20;99.90
43665;DHT22;29263;48.172;11.484;2022-09-09T01:30:25;14.20;99.90
43665;DHT22;29263;48.172;11.484;2022-09-09T01:37:07;14.30;99.90
43665;DHT22;29263;48.172;11.484;2022-09-09T01:39:35;14.30;99.90
43665;DHT22;29263;48.172;11.484;2022-09-09T01:42:03;14.30;99.90
43665;DHT22;29263;48.172;11.484;2022-09-09T01:44:30;14.30;99.90
43665;DHT22;29263;48.172;11.484;2022-09-09T01:46:56;14.20;99.90
43665;DHT22;29263;48.172;11.484;2022-09-09T01:49:22;14.20;99.90
43665;DHT22;29263;48.172;11.484;2022-09-09T01:52:06;14.20;99.90
43665;DHT22;29263;48.172;11.484;2022-09-09T01:54:34;14.20;99.90
43665;DHT22;29263;48.172;11.484;2022-09-09T01:57:15;14.10;99.90
43665;DHT22;29263;48.172;11.484;2022-09-09T02:08:29;13.90;99.90
43665;DHT22;29263;48.172;11.484;2022-09-09T02:11:13;13.80;99.90
43665;DHT22;29263;48.172;11.484;2022-09-09T02:13:43;13.80;99.90
43665;DHT22;29263;48.172;11.484;2022-09-09T02:19:37;13.80;99.90
43665;DHT22;29263;48.172;11.484;2022-09-09T02:25:28;13.80;99.90
43665;DHT22;29263;48.172;11.484;2022-09-09T02:27:55;13.70;99.90
43665;DHT22;29263;48.172;11.484;2022-09-09T02:30:23;13.70;99.90
43665;DHT22;29263;48.172;11.484;2022-09-09T02:32:50;13.60;99.90
43665;DHT22;29263;48.172;11.484;2022-09-09T02:35:21;13.60;99.90
43665;DHT22;29263;48.172;11.484;2022-09-09T02:38:18;13.60;99.90
43665;DHT22;29263;48.172;11.484;2022-09-09T02:44:14;13.60;99.90
43665;DHT22;29263;48.172;11.484;2022-09-09T02:55:32;13.60;99.90
43665;DHT22;29263;48.172;11.484;2022-09-09T02:58:15;13.60;99.90
43665;DHT22;29263;48.172;11.484;2022-09-09T03:00:49;13.60;99.90
43665;DHT22;29263;48.172;11.484;2022-09-09T03:06:39;13.60;99.90
43665;DHT22;29263;48.172;11.484;2022-09-09T03:09:05;13.60;99.90
43665;DHT22;29263;48.172;11.484;2022-09-09T03:11:31;13.60;99.90
43665;DHT22;29263;48.172;11.484;2022-09-09T03:14:15;13.60;99.90
43665;DHT22;29263;48.172;11.484;2022-09-09T03:16:41;13.60;99.90
43665;DHT22;29263;48.172;11.484;2022-09-09T03:19:10;13.60;99.90
43665;DHT22;29263;48.172;11.484;2022-09-09T03:39:02;13.60;99.90
43665;DHT22;29263;48.172;11.484;2022-09-09T03:41:47;13.70;99.90
43665;DHT22;29263;48.172;11.484;2022-09-09T03:44:14;13.70;99.90
43665;DHT22;29263;48.172;11.484;2022-09-09T03:46:40;13.70;99.90
43665;DHT22;29263;48.172;11.484;2022-09-09T03:52:10;13.80;99.90
43665;DHT22;29263;48.172;11.484;2022-09-09T03:54:36;13.70;99.90
43665;DHT22;29263;48.172;11.484;2022-09-09T03:57:02;13.80;99.90
43665;DHT22;29263;48.172;11.484;2022-09-09T03:59:28;13.80;99.90
43665;DHT22;29263;48.172;11.484;2022-09-09T04:01:53;13.80;99.90
43665;DHT22;29263;48.172;11.484;2022-09-09T04:04:20;13.80;99.90
43665;DHT22;29263;48.172;11.484;2022-09-09T04:06:46;13.80;99.90
43665;DHT22;29263;48.172;11.484;2022-09-09T04:09:14;13.90;99.90
43665;DHT22;29263;48.172;11.484;2022-09-09T04:11:39;13.90;99.90
43665;DHT22;29263;48.172;11.484;2022-09-09T04:14:05;13.90;99.90
43665;DHT22;29263;48.172;11.484;2022-09-09T04:16:32;14.00;99.90
43665;DHT22;29263;48.172;11.484;2022-09-09T04:18:58;14.00;99.90
43665;DHT22;29263;48.172;11.484;2022-09-09T04:24:46;14.00;99.90
43665;DHT22;29263;48.172;11.484;2022-09-09T04:27:14;14.00;99.90
43665;DHT22;29263;48.172;11.484;2022-09-09T04:29:40;14.00;99.90
43665;DHT22;29263;48.172;11.484;2022-09-09T04:32:05;14.00;99.90
43665;DHT22;29263;48.172;11.484;2022-09-09T04:34:31;14.00;99.90
43665;DHT22;29263;48.172;11.484;2022-09-09T04:36:59;14.00;99.90
43665;DHT22;29263;48.172;11.484;2022-09-09T04:39:25;14.10;99.90
43665;DHT22;29263;48.172;11.484;2022-09-09T04:41:51;14.10;99.90
43665;DHT22;29263;48.172;11.484;2022-09-09T04:44:17;14.00;99.90
43665;DHT22;29263;48.172;11.484;2022-09-09T04:46:42;14.00;99.90
43665;DHT22;29263;48.172;11.484;2022-09-09T04:49:08;14.00;99.90
43665;DHT22;29263;48.172;11.484;2022-09-09T04:51:33;13.90;99.90
43665;DHT22;29263;48.172;11.484;2022-09-09T04:53:59;13.90;99.90
43665;DHT22;29263;48.172;11.484;2022-09-09T04:56:25;13.90;99.90
43665;DHT22;29263;48.172;11.484;2022-09-09T04:58:53;13.90;99.90
43665;DHT22;29263;48.172;11.484;2022-09-09T05:01:21;13.90;99.90
43665;DHT22;29263;48.172;11.484;2022-09-09T05:03:48;13.90;99.90
43665;DHT22;29263;48.172;11.484;2022-09-09T05:06:17;13.80;99.90
43665;DHT22;29263;48.172;11.484;2022-09-09T05:08:43;13.80;99.90
43665;DHT22;29263;48.172;11.484;2022-09-09T05:11:23;13.70;99.90
43665;DHT22;29263;48.172;11.484;2022-09-09T05:13:49;13.70;99.90
43665;DHT22;29263;48.172;11.484;2022-09-09T05:16:16;13.70;99.90
43665;DHT22;29263;48.172;11.484;2022-09-09T05:18:42;13.80;99.90
43665;DHT22;29263;48.172;11.484;2022-09-09T05:21:09;13.70;99.90
43665;DHT22;29263;48.172;11.484;2022-09-09T05:23:35;13.70;99.90
43665;DHT22;29263;48.172;11.484;2022-09-09T05:26:02;13.60;99.90
43665;DHT22;29263;48.172;11.484;2022-09-09T05:28:28;13.60;99.90
43665;DHT22;29263;48.172;11.484;2022-09-09T05:31:06;13.60;99.90
43665;DHT22;29263;48.172;11.484;2022-09-09T05:33:39;13.60;99.90
43665;DHT22;29263;48.172;11.484;2022-09-09T05:36:11;13.60;99.90
43665;DHT22;29263;48.172;11.484;2022-09-09T05:38:39;13.60;99.90
43665;DHT22;29263;48.172;11.484;2022-09-09T05:41:05;13.70;99.90
43665;DHT22;29263;48.172;11.484;2022-09-09T05:43:31;13.80;99.90
43665;DHT22;29263;48.172;11.484;2022-09-09T05:46:09;13.80;99.90
43665;DHT22;29263;48.172;11.484;2022-09-09T05:48:37;13.80;99.90
43665;DHT22;29263;48.172;11.484;2022-09-09T05:51:04;13.90;99.90
43665;DHT22;29263;48.172;11.484;2022-09-09T05:53:30;13.90;99.90
43665;DHT22;29263;48.172;11.484;2022-09-09T05:56:04;14.00;99.90
43665;DHT22;29263;48.172;11.484;2022-09-09T05:58:31;13.90;99.90
43665;DHT22;29263;48.172;11.484;2022-09-09T06:01:10;14.00;99.90
43665;DHT22;29263;48.172;11.484;2022-09-09T06:03:38;14.00;99.90
43665;DHT22;29263;48.172;11.484;2022-09-09T06:06:06;14.10;99.90
43665;DHT22;29263;48.172;11.484;2022-09-09T06:08:36;14.10;99.90
43665;DHT22;29263;48.172;11.484;2022-09-09T06:13:32;14.20;99.90
43665;DHT22;29263;48.172;11.484;2022-09-09T06:15:58;14.30;99.90
43665;DHT22;29263;48.172;11.484;2022-09-09T06:18:25;14.30;99.90
43665;DHT22;29263;48.172;11.484;2022-09-09T06:21:01;14.40;99.90
43665;DHT22;29263;48.172;11.484;2022-09-09T06:23:30;14.40;99.90
43665;DHT22;29263;48.172;11.484;2022-09-09T06:26:07;14.40;99.90
43665;DHT22;29263;48.172;11.484;2022-09-09T06:28:35;14.50;99.90
43665;DHT22;29263;48.172;11.484;2022-09-09T06:31:03;14.50;99.90
43665;DHT22;29263;48.172;11.484;2022-09-09T06:33:34;14.60;99.90
43665;DHT22;29263;48.172;11.484;2022-09-09T06:36:04;14.60;99.90
43665;DHT22;29263;48.172;11.484;2022-09-09T06:38:30;14.70;99.90
43665;DHT22;29263;48.172;11.484;2022-09-09T06:40:58;14.70;99.90
43665;DHT22;29263;48.172;11.484;2022-09-09T06:43:25;14.80;99.90
43665;DHT22;29263;48.172;11.484;2022-09-09T06:48:20;14.90;99.90
43665;DHT22;29263;48.172;11.484;2022-09-09T06:50:46;15.00;99.90
43665;DHT22;29263;48.172;11.484;2022-09-09T06:53:12;15.00;99.90
43665;DHT22;29263;48.172;11.484;2022-09-09T06:55:38;15.10;99.90
43665;DHT22;29263;48.172;11.484;2022-09-09T06:58:09;15.20;99.90
43665;DHT22;29263;48.172;11.484;2022-09-09T07:00:34;15.30;99.90
43665;DHT22;29263;48.172;11.484;2022-09-09T07:03:03;15.30;99.90
43665;DHT22;29263;48.172;11.484;2022-09-09T07:05:28;15.30;99.90
43665;DHT22;29263;48.172;11.484;2022-09-09T07:07:54;15.40;99.90
43665;DHT22;29263;48.172;11.484;2022-09-09T07:10:19;15.30;99.90
43665;DHT22;29263;48.172;11.484;2022-09-09T07:12:50;15.20;99.90
43665;DHT22;29263;48.172;11.484;2022-09-09T07:15:17;15.20;99.90
43665;DHT22;29263;48.172;11.484;2022-09-09T07:17:44;15.10;99.90
43665;DHT22;29263;48.172;11.484;2022-09-09T07:20:10;15.10;99.90
43665;DHT22;29263;48.172;11.484;2022-09-09T07:22:35;15.00;99.90
43665;DHT22;29263;48.172;11.484;2022-09-09T07:25:01;15.00;99.90
43665;DHT22;29263;48.172;11.484;2022-09-09T07:27:27;15.00;99.90
43665;DHT22;29263;48.172;11.484;2022-09-09T07:29:53;15.00;99.90
43665;DHT22;29263;48.172;11.484;2022-09-09T07:32:19;15.00;99.90
43665;DHT22;29263;48.172;11.484;2022-09-09T07:34:45;15.00;99.90
43665;DHT22;29263;48.172;11.484;2022-09-09T07:37:12;15.10;99.90
43665;DHT22;29263;48.172;11.484;2022-09-09T07:39:39;15.20;99.90
43665;DHT22;29263;48.172;11.484;2022-09-09T07:42:05;15.30;99.90
43665;DHT22;29263;48.172;11.484;2022-09-09T07:44:31;15.30;99.90
43665;DHT22;29263;48.172;11.484;2022-09-09T07:47:00;15.50;99.90
43665;DHT22;29263;48.172;11.484;2022-09-09T07:49:26;15.50;99.90
43665;DHT22;29263;48.172;11.484;2022-09-09T07:51:51;15.50;99.90
43665;DHT22;29263;48.172;11.484;2022-09-09T07:54:18;15.60;99.90
43665;DHT22;29263;48.172;11.484;2022-09-09T07:56:49;15.70;99.90
43665;DHT22;29263;48.172;11.484;2022-09-09T07:59:14;15.90;99.90
43665;DHT22;29263;48.172;11.484;2022-09-09T08:01:46;15.80;99.90
43665;DHT22;29263;48.172;11.484;2022-09-09T08:04:15;15.90;99.90
43665;DHT22;29263;48.172;11.484;2022-09-09T08:06:52;16.00;99.90
43665;DHT22;29263;48.172;11.484;2022-09-09T08:09:19;16.10;99.90
43665;DHT22;29263;48.172;11.484;2022-09-09T08:11:44;16.20;99.90
43665;DHT22;29263;48.172;11.484;2022-09-09T08:14:11;16.30;99.90
43665;DHT22;29263;48.172;11.484;2022-09-09T08:16:41;16.30;99.90
43665;DHT22;29263;48.172;11.484;2022-09-09T08:19:07;16.40;99.90
43665;DHT22;29263;48.172;11.484;2022-09-09T08:21:35;16.40;99.90
43665;DHT22;29263;48.172;11.484;2022-09-09T08:24:02;16.40;99.90
43665;DHT22;29263;48.172;11.484;2022-09-09T08:26:30;16.50;99.90
43665;DHT22;29263;48.172;11.484;2022-09-09T08:28:58;16.40;99.90
43665;DHT22;29263;48.172;11.484;2022-09-09T08:31:29;16.40;99.90
43665;DHT22;29263;48.172;11.484;2022-09-09T08:33:57;16.40;99.90
43665;DHT22;29263;48.172;11.484;2022-09-09T08:36:26;16.40;99.90
43665;DHT22;29263;48.172;11.484;2022-09-09T08:38:54;16.40;99.90
43665;DHT22;29263;48.172;11.484;2022-09-09T08:52:25;16.30;99.90
43665;DHT22;29263;48.172;11.484;2022-09-09T08:54:53;16.40;99.90
43665;DHT22;29263;48.172;11.484;2022-09-09T08:57:26;16.40;99.90
43665;DHT22;29263;48.172;11.484;2022-09-09T08:59:54;16.40;99.90
43665;DHT22;29263;48.172;11.484;2022-09-09T09:10:49;16.70;99.90
43665;DHT22;29263;48.172;11.484;2022-09-09T09:13:15;16.90;99.90
43665;DHT22;29263;48.172;11.484;2022-09-09T09:15:44;17.10;99.90
43665;DHT22;29263;48.172;11.484;2022-09-09T09:18:13;17.10;99.90
43665;DHT22;29263;48.172;11.484;2022-09-09T09:20:58;17.20;99.90
43665;DHT22;29263;48.172;11.484;2022-09-09T09:23:35;17.10;99.90
43665;DHT22;29263;48.172;11.484;2022-09-09T09:26:07;17.10;99.90
43665;DHT22;29263;48.172;11.484;2022-09-09T09:28:36;17.10;99.90
43665;DHT22;29263;48.172;11.484;2022-09-09T09:36:15;17.10;99.90
43665;DHT22;29263;48.172;11.484;2022-09-09T09:38:55;16.80;99.90
43665;DHT22;29263;48.172;11.484;2022-09-09T09:44:03;16.80;99.90
43665;DHT22;29263;48.172;11.484;2022-09-09T09:46:31;16.70;99.90
43665;DHT22;29263;48.172;11.484;2022-09-09T09:49:02;16.60;99.90
43665;DHT22;29263;48.172;11.484;2022-09-09T09:51:30;16.50;99.90
43665;DHT22;29263;48.172;11.484;2022-09-09T09:54:27;16.50;99.90
43665;DHT22;29263;48.172;11.484;2022-09-09T09:56:54;16.50;99.90
43665;DHT22;29263;48.172;11.484;2022-09-09T10:02:05;16.50;99.90
43665;DHT22;29263;48.172;11.484;2022-09-09T10:04:31;16.40;99.90
43665;DHT22;29263;48.172;11.484;2022-09-09T10:06:58;16.40;99.90
43665;DHT22;29263;48.172;11.484;2022-09-09T10:09:35;16.30;99.90
43665;DHT22;29263;48.172;11.484;2022-09-09T10:15:07;16.20;99.90
43665;DHT22;29263;48.172;11.484;2022-09-09T10:18:00;16.20;99.90
43665;DHT22;29263;48.172;11.484;2022-09-09T10:23:21;16.40;99.90
43665;DHT22;29263;48.172;11.484;2022-09-09T10:26:02;16.50;99.90
43665;DHT22;29263;48.172;11.484;2022-09-09T10:36:48;16.80;99.90
43665;DHT22;29263;48.172;11.484;2022-09-09T10:39:35;17.00;99.90
43665;DHT22;29263;48.172;11.484;2022-09-09T10:42:06;17.20;99.90
43665;DHT22;29263;48.172;11.484;2022-09-09T10:53:14;17.90;99.90
43665;DHT22;29263;48.172;11.484;2022-09-09T10:55:43;17.90;99.90
43665;DHT22;29263;48.172;11.484;2022-09-09T10:58:17;17.90;99.90
43665;DHT22;29263;48.172;11.484;2022-09-09T11:00:52;18.00;99.90
43665;DHT22;29263;48.172;11.484;2022-09-09T11:03:30;18.00;99.90
43665;DHT22;29263;48.172;11.484;2022-09-09T11:05:57;18.00;99.90
43665;DHT22;29263;48.172;11.484;2022-09-09T11:08:27;18.00;99.90
43665;DHT22;29263;48.172;11.484;2022-09-09T11:11:11;18.10;99.90
43665;DHT22;29263;48.172;11.484;2022-09-09T11:13:53;18.30;99.90
43665;DHT22;29263;48.172;11.484;2022-09-09T11:18:46;18.90;99.90
43665;DHT22;29263;48.172;11.484;2022-09-09T11:21:23;19.00;99.90
43665;DHT22;29263;48.172;11.484;2022-09-09T11:23:54;19.20;99.90
43665;DHT22;29263;48.172;11.484;2022-09-09T11:26:30;19.20;99.90
43665;DHT22;29263;48.172;11.484;2022-09-09T11:35:06;19.30;99.90
43665;DHT22;29263;48.172;11.484;2022-09-09T11:40:22;19.40;99.90
43665;DHT22;29263;48.172;11.484;2022-09-09T11:42:49;19.50;99.90
43665;DHT22;29263;48.172;11.484;2022-09-09T11:47:53;19.30;99.90
43665;DHT22;29263;48.172;11.484;2022-09-09T11:52:47;19.10;99.90
43665;DHT22;29263;48.172;11.484;2022-09-09T11:55:27;18.90;99.90
43665;DHT22;29263;48.172;11.484;2022-09-09T11:57:59;18.70;99.90
43665;DHT22;29263;48.172;11.484;2022-09-09T12:00:37;18.60;99.90
43665;DHT22;29263;48.172;11.484;2022-09-09T12:06:20;18.50;99.90
43665;DHT22;29263;48.172;11.484;2022-09-09T12:08:54;18.50;99.90
43665;DHT22;29263;48.172;11.484;2022-09-09T12:11:26;18.40;99.90
43665;DHT22;29263;48.172;11.484;2022-09-09T12:13:54;18.40;99.90
43665;DHT22;29263;48.172;11.484;2022-09-09T12:16:36;18.30;99.90
43665;DHT22;29263;48.172;11.484;2022-09-09T12:19:24;18.40;99.90
43665;DHT22;29263;48.172;11.484;2022-09-09T12:22:11;18.40;99.90
43665;DHT22;29263;48.172;11.484;2022-09-09T12:27:44;18.50;99.90
43665;DHT22;29263;48.172;11.484;2022-09-09T12:30:15;18.60;99.90
43665;DHT22;29263;48.172;11.484;2022-09-09T12:32:41;18.80;99.90
43665;DHT22;29263;48.172;11.484;2022-09-09T12:35:22;19.00;99.90
43665;DHT22;29263;48.172;11.484;2022-09-09T12:37:59;19.30;99.90
43665;DHT22;29263;48.172;11.484;2022-09-09T12:40:27;19.60;99.90
43665;DHT22;29263;48.172;11.484;2022-09-09T12:42:54;19.70;99.90
43665;DHT22;29263;48.172;11.484;2022-09-09T12:45:26;19.80;99.90
43665;DHT22;29263;48.172;11.484;2022-09-09T12:48:18;19.70;99.90
43665;DHT22;29263;48.172;11.484;2022-09-09T12:50:50;19.50;99.90
43665;DHT22;29263;48.172;11.484;2022-09-09T12:53:26;19.40;99.90
43665;DHT22;29263;48.172;11.484;2022-09-09T12:55:58;19.50;99.90
43665;DHT22;29263;48.172;11.484;2022-09-09T12:58:25;19.50;99.90
43665;DHT22;29263;48.172;11.484;2022-09-09T13:00:55;19.50;99.90
43665;DHT22;29263;48.172;11.484;2022-09-09T13:03:24;19.40;99.90
43665;DHT22;29263;48.172;11.484;2022-09-09T13:05:53;19.50;99.90
43665;DHT22;29263;48.172;11.484;2022-09-09T13:08:19;19.60;99.90
43665;DHT22;29263;48.172;11.484;2022-09-09T13:10:49;19.70;99.90
43665;DHT22;29263;48.172;11.484;2022-09-09T13:13:27;19.60;99.90
43665;DHT22;29263;48.172;11.484;2022-09-09T13:15:57;19.60;99.90
43665;DHT22;29263;48.172;11.484;2022-09-09T13:18:39;19.60;99.90
43665;DHT22;29263;48.172;11.484;2022-09-09T13:21:05;19.60;99.90
43665;DHT22;29263;48.172;11.484;2022-09-09T13:23:36;19.70;99.90
43665;DHT22;29263;48.172;11.484;2022-09-09T13:26:05;19.70;99.90
43665;DHT22;29263;48.172;11.484;2022-09-09T13:28:33;19.70;99.90
43665;DHT22;29263;48.172;11.484;2022-09-09T13:31:20;19.70;99.90
43665;DHT22;29263;48.172;11.484;2022-09-09T13:33:46;19.70;99.90
43665;DHT22;29263;48.172;11.484;2022-09-09T13:36:13;19.80;99.90
43665;DHT22;29263;48.172;11.484;2022-09-09T13:42:02;19.70;99.90
43665;DHT22;29263;48.172;11.484;2022-09-09T13:44:24;19.80;99.90
43665;DHT22;29263;48.172;11.484;2022-09-09T13:49:28;19.60;99.90
43665;DHT22;29263;48.172;11.484;2022-09-09T13:52:05;19.50;99.90
43665;DHT22;29263;48.172;11.484;2022-09-09T13:54:32;19.40;99.90
43665;DHT22;29263;48.172;11.484;2022-09-09T13:56:58;19.30;99.90
43665;DHT22;29263;48.172;11.484;2022-09-09T13:59:25;19.20;99.90
43665;DHT22;29263;48.172;11.484;2022-09-09T14:01:51;19.10;99.90
43665;DHT22;29263;48.172;11.484;2022-09-09T14:04:18;19.10;99.90
43665;DHT22;29263;48.172;11.484;2022-09-09T14:06:44;18.90;99.90
43665;DHT22;29263;48.172;11.484;2022-09-09T14:09:13;18.90;99.90
43665;DHT22;29263;48.172;11.484;2022-09-09T14:11:40;18.80;99.90
43665;DHT22;29263;48.172;11.484;2022-09-09T14:14:06;18.80;99.90
43665;DHT22;29263;48.172;11.484;2022-09-09T14:16:32;18.80;99.90
43665;DHT22;29263;48.172;11.484;2022-09-09T14:18:58;18.80;99.90
43665;DHT22;29263;48.172;11.484;2022-09-09T14:21:25;18.70;99.90
43665;DHT22;29263;48.172;11.484;2022-09-09T14:23:51;18.70;99.90
43665;DHT22;29263;48.172;11.484;2022-09-09T14:26:18;18.70;99.90
43665;DHT22;29263;48.172;11.484;2022-09-09T14:28:46;18.70;99.90
43665;DHT22;29263;48.172;11.484;2022-09-09T14:31:13;18.70;99.90
43665;DHT22;29263;48.172;11.484;2022-09-09T14:33:40;18.70;99.90
43665;DHT22;29263;48.172;11.484;2022-09-09T14:36:06;18.70;99.90
43665;DHT22;29263;48.172;11.484;2022-09-09T14:38:37;18.80;99.90
43665;DHT22;29263;48.172;11.484;2022-09-09T14:41:08;18.70;99.90
43665;DHT22;29263;48.172;11.484;2022-09-09T14:43:34;18.70;99.90
43665;DHT22;29263;48.172;11.484;2022-09-09T14:46:11;18.60;99.90
43665;DHT22;29263;48.172;11.484;2022-09-09T14:48:37;18.50;99.90
43665;DHT22;29263;48.172;11.484;2022-09-09T14:51:10;18.40;99.90
43665;DHT22;29263;48.172;11.484;2022-09-09T14:53:38;18.50;99.90
43665;DHT22;29263;48.172;11.484;2022-09-09T14:56:18;18.40;99.90
43665;DHT22;29263;48.172;11.484;2022-09-09T14:58:44;18.40;99.90
43665;DHT22;29263;48.172;11.484;2022-09-09T15:01:12;18.30;99.90
43665;DHT22;29263;48.172;11.484;2022-09-09T15:03:39;18.30;99.90
43665;DHT22;29263;48.172;11.484;2022-09-09T15:06:10;18.30;99.90
43665;DHT22;29263;48.172;11.484;2022-09-09T15:08:37;18.30;99.90
43665;DHT22;29263;48.172;11.484;2022-09-09T15:11:04;18.30;99.90
43665;DHT22;29263;48.172;11.484;2022-09-09T15:13:30;18.20;99.90
43665;DHT22;29263;48.172;11.484;2022-09-09T15:16:03;18.20;99.90
43665;DHT22;29263;48.172;11.484;2022-09-09T15:21:35;18.50;99.90
43665;DHT22;29263;48.172;11.484;2022-09-09T15:24:01;18.80;99.90
43665;DHT22;29263;48.172;11.484;2022-09-09T15:26:27;18.90;99.90
43665;DHT22;29263;48.172;11.484;2022-09-09T15:28:53;19.00;99.90
43665;DHT22;29263;48.172;11.484;2022-09-09T15:31:24;19.00;99.90
43665;DHT22;29263;48.172;11.484;2022-09-09T15:33:54;19.00;99.90
43665;DHT22;29263;48.172;11.484;2022-09-09T15:36:27;19.00;99.90
43665;DHT22;29263;48.172;11.484;2022-09-09T15:38:54;19.00;99.90
43665;DHT22;29263;48.172;11.484;2022-09-09T15:41:21;19.00;99.90
43665;DHT22;29263;48.172;11.484;2022-09-09T15:43:50;19.20;99.90
43665;DHT22;29263;48.172;11.484;2022-09-09T15:46:35;19.00;99.90
43665;DHT22;29263;48.172;11.484;2022-09-09T15:49:23;19.10;99.90
43665;DHT22;29263;48.172;11.484;2022-09-09T15:54:20;19.00;99.90
43665;DHT22;29263;48.172;11.484;2022-09-09T15:56:54;18.90;99.90
43665;DHT22;29263;48.172;11.484;2022-09-09T15:59:21;18.80;99.90
43665;DHT22;29263;48.172;11.484;2022-09-09T16:01:48;18.50;99.90
43665;DHT22;29263;48.172;11.484;2022-09-09T16:04:18;18.30;99.90
43665;DHT22;29263;48.172;11.484;2022-09-09T16:07:01;18.20;99.90
43665;DHT22;29263;48.172;11.484;2022-09-09T16:09:28;18.10;99.90
43665;DHT22;29263;48.172;11.484;2022-09-09T16:11:58;18.10;99.90
43665;DHT22;29263;48.172;11.484;2022-09-09T16:14:26;18.00;99.90
43665;DHT22;29263;48.172;11.484;2022-09-09T16:16:52;17.90;99.90
43665;DHT22;29263;48.172;11.484;2022-09-09T16:19:18;17.90;99.90
43665;DHT22;29263;48.172;11.484;2022-09-09T16:21:46;18.00;99.90
43665;DHT22;29263;48.172;11.484;2022-09-09T16:24:15;18.10;99.90
43665;DHT22;29263;48.172;11.484;2022-09-09T16:26:43;18.10;99.90
43665;DHT22;29263;48.172;11.484;2022-09-09T16:29:11;18.10;99.90
43665;DHT22;29263;48.172;11.484;2022-09-09T16:31:39;18.10;99.90
43665;DHT22;29263;48.172;11.484;2022-09-09T16:34:06;18.00;99.90
43665;DHT22;29263;48.172;11.484;2022-09-09T16:36:33;18.00;99.90
43665;DHT22;29263;48.172;11.484;2022-09-09T16:39:01;17.90;99.90
43665;DHT22;29263;48.172;11.484;2022-09-09T16:41:28;17.80;99.90
43665;DHT22;29263;48.172;11.484;2022-09-09T16:43:59;17.70;99.90
43665;DHT22;29263;48.172;11.484;2022-09-09T16:46:26;17.60;99.90
43665;DHT22;29263;48.172;11.484;2022-09-09T16:48:53;17.50;99.90
43665;DHT22;29263;48.172;11.484;2022-09-09T16:51:28;17.40;99.90
43665;DHT22;29263;48.172;11.484;2022-09-09T16:53:55;17.30;99.90
43665;DHT22;29263;48.172;11.484;2022-09-09T16:56:24;17.20;99.90
43665;DHT22;29263;48.172;11.484;2022-09-09T16:58:55;17.10;99.90
43665;DHT22;29263;48.172;11.484;2022-09-09T17:01:25;17.10;99.90
43665;DHT22;29263;48.172;11.484;2022-09-09T17:03:55;17.10;99.90
43665;DHT22;29263;48.172;11.484;2022-09-09T17:06:20;17.00;99.90
43665;DHT22;29263;48.172;11.484;2022-09-09T17:08:46;16.90;99.90
43665;DHT22;29263;48.172;11.484;2022-09-09T17:11:32;16.90;99.90
43665;DHT22;29263;48.172;11.484;2022-09-09T17:13:59;16.70;99.90
43665;DHT22;29263;48.172;11.484;2022-09-09T17:16:27;16.60;99.90
43665;DHT22;29263;48.172;11.484;2022-09-09T17:18:54;16.60;99.90
43665;DHT22;29263;48.172;11.484;2022-09-09T17:21:23;16.50;99.90
43665;DHT22;29263;48.172;11.484;2022-09-09T17:23:49;16.50;99.90
43665;DHT22;29263;48.172;11.484;2022-09-09T17:26:17;16.40;99.90
43665;DHT22;29263;48.172;11.484;2022-09-09T17:28:44;16.40;99.90
43665;DHT22;29263;48.172;11.484;2022-09-09T17:31:12;16.30;99.90
43665;DHT22;29263;48.172;11.484;2022-09-09T17:33:40;16.20;99.90
43665;DHT22;29263;48.172;11.484;2022-09-09T17:36:19;16.20;99.90
43665;DHT22;29263;48.172;11.484;2022-09-09T17:38:45;16.10;99.90
43665;DHT22;29263;48.172;11.484;2022-09-09T17:41:15;16.10;99.90
43665;DHT22;29263;48.172;11.484;2022-09-09T17:43:42;16.00;99.90
43665;DHT22;29263;48.172;11.484;2022-09-09T17:46:20;16.00;99.90
43665;DHT22;29263;48.172;11.484;2022-09-09T17:48:48;15.90;99.90
43665;DHT22;29263;48.172;11.484;2022-09-09T17:51:19;15.80;99.90
43665;DHT22;29263;48.172;11.484;2022-09-09T17:53:47;15.70;99.90
43665;DHT22;29263;48.172;11.484;2022-09-09T17:56:16;15.60;99.90
43665;DHT22;29263;48.172;11.484;2022-09-09T17:58:42;15.60;99.90
43665;DHT22;29263;48.172;11.484;2022-09-09T18:01:10;15.60;99.90
43665;DHT22;29263;48.172;11.484;2022-09-09T18:03:38;15.50;99.90
43665;DHT22;29263;48.172;11.484;2022-09-09T18:06:07;15.40;99.90
43665;DHT22;29263;48.172;11.484;2022-09-09T18:08:34;15.20;99.90
43665;DHT22;29263;48.172;11.484;2022-09-09T18:11:01;15.20;99.90
43665;DHT22;29263;48.172;11.484;2022-09-09T18:13:28;15.20;99.90
43665;DHT22;29263;48.172;11.484;2022-09-09T18:15:54;15.10;99.90
43665;DHT22;29263;48.172;11.484;2022-09-09T18:18:20;15.10;99.90
43665;DHT22;29263;48.172;11.484;2022-09-09T18:20:47;15.00;99.90
43665;DHT22;29263;48.172;11.484;2022-09-09T18:23:21;15.00;99.90
43665;DHT22;29263;48.172;11.484;2022-09-09T18:25:46;15.00;99.90
43665;DHT22;29263;48.172;11.484;2022-09-09T18:28:12;15.00;99.90
43665;DHT22;29263;48.172;11.484;2022-09-09T18:30:38;14.90;99.90
43665;DHT22;29263;48.172;11.484;2022-09-09T18:33:04;14.90;99.90
43665;DHT22;29263;48.172;11.484;2022-09-09T18:35:30;14.90;99.90
43665;DHT22;29263;48.172;11.484;2022-09-09T18:37:56;14.90;99.90
43665;DHT22;29263;48.172;11.484;2022-09-09T18:40:22;14.90;99.90